Aviation Digital Data Service (ADDS)

Output produced by METARs form (1105 UTC 13 December 2017)
found at http://www.aviationweather.gov/adds/metars/
 
FKKD 131000Z VRB02KT 2000 HZ BKN016 FEW020CB 32/26 Q1011 BECMG 3200 HZ
TAF FKKD 130500Z 1306/1412 VRB04KT 2000 HZ SCT016 FEW020CB 
     TEMPO 1306/1308 1200 BR BKN013 FEW016CB 
     TEMPO 1322/1408 1400 BR
       
FKKR 131000Z 22004KT CAVOK 33/08 Q1013 NOSIG
TAF FKKR 130500Z 1306/1318 VRB03KT 8000 NSC ISSUED BY DOUALA MET OFFICE
       
FKKN 131000Z 36010KT CAVOK 29/11 Q1019
FKYS 131000Z VRB03KT 3000 HZ BKN013 28/22 Q1017 BECMG BKN016
TAF FKYS 130500Z 1300/1406 VRB03KT 3000 HZ BKN006 
     TEMPO 1306/1308 1200 BR 
     BECMG 1308/1310 SCT016 
     BECMG 1320/1322 BKN006